DHLLM EDDH-EDHF
Flight info
| Callsign | DHLLM |
|---|---|
| Flight time | 0h 13m |
| Altitude | |
| Route | |
| Aircraft | EC45 |
Departure
| Time | 2026-05-06 19:46 |
|---|---|
| Airport | Hamburg Helmut Schmidt Airport (EDDH) |
Arrival
| Time | 2026-05-06 20:00 |
|---|---|
| Airport | Itzehoe Hungriger Wolf Airfield (EDHF) |
| Time | Latitude | Longitude | Altitude | Speed | Heading |
|---|---|---|---|---|---|
| 2026-05-06 19:32 | 53.62546 | 9.99395 | 47 ft | 0 kts | 16° |
| 2026-05-06 19:35 | 53.62542 | 9.99382 | 50 ft | 2 kts | 14° |
| 2026-05-06 19:36 | 53.62530 | 9.99352 | 51 ft | 1 kts | 11° |
| 2026-05-06 19:36 | 53.62529 | 9.99350 | 45 ft | 0 kts | 7° |
| 2026-05-06 19:36 | 53.62536 | 9.99344 | 56 ft | 5 kts | 2° |
| 2026-05-06 19:36 | 53.62575 | 9.99276 | 62 ft | 12 kts | 264° |
| 2026-05-06 19:37 | 53.62567 | 9.99159 | 59 ft | 10 kts | 262° |
| 2026-05-06 19:37 | 53.62554 | 9.99030 | 56 ft | 10 kts | 262° |
| 2026-05-06 19:37 | 53.62543 | 9.98925 | 57 ft | 9 kts | 262° |
| 2026-05-06 19:37 | 53.62530 | 9.98808 | 58 ft | 14 kts | 262° |
| 2026-05-06 19:38 | 53.62513 | 9.98650 | 59 ft | 12 kts | 263° |
| 2026-05-06 19:38 | 53.62505 | 9.98522 | 57 ft | 8 kts | 306° |
| 2026-05-06 19:38 | 53.62538 | 9.98474 | 62 ft | 4 kts | 339° |
| 2026-05-06 19:38 | 53.62550 | 9.98467 | 53 ft | 1 kts | 346° |
| 2026-05-06 19:39 | 53.62556 | 9.98463 | 50 ft | 2 kts | 347° |
| 2026-05-06 19:39 | 53.62561 | 9.98461 | 47 ft | 0 kts | 347° |
| 2026-05-06 19:45 | 53.62520 | 9.98500 | 123 ft | 8 kts | 353° |
| 2026-05-06 19:46 | 53.62638 | 9.98336 | 367 ft | 52 kts | 311° |
| 2026-05-06 19:46 | 53.62878 | 9.97626 | 582 ft | 90 kts | 290° |
| 2026-05-06 19:46 | 53.63013 | 9.96413 | 614 ft | 115 kts | 285° |
| 2026-05-06 19:46 | 53.63243 | 9.95077 | 699 ft | 122 kts | 291° |
| 2026-05-06 19:47 | 53.63466 | 9.93671 | 760 ft | 127 kts | 289° |
| 2026-05-06 19:47 | 53.63723 | 9.92258 | 851 ft | 123 kts | 295° |
| 2026-05-06 19:47 | 53.64045 | 9.90969 | 1020 ft | 116 kts | 301° |
| 2026-05-06 19:47 | 53.64405 | 9.89780 | 1202 ft | 112 kts | 303° |
| 2026-05-06 19:48 | 53.64756 | 9.88647 | 1290 ft | 106 kts | 304° |
| 2026-05-06 19:48 | 53.65154 | 9.87444 | 1286 ft | 129 kts | 306° |
| 2026-05-06 19:48 | 53.65632 | 9.86100 | 1272 ft | 136 kts | 307° |
| 2026-05-06 19:48 | 53.66121 | 9.84704 | 1232 ft | 140 kts | 306° |
| 2026-05-06 19:49 | 53.66589 | 9.83283 | 1235 ft | 141 kts | 300° |
| 2026-05-06 19:49 | 53.67046 | 9.81802 | 1240 ft | 144 kts | 300° |
| 2026-05-06 19:49 | 53.67528 | 9.80328 | 1236 ft | 143 kts | 305° |
| 2026-05-06 19:49 | 53.68132 | 9.79006 | 1210 ft | 141 kts | 317° |
| 2026-05-06 19:50 | 53.68878 | 9.77960 | 1176 ft | 138 kts | 330° |
| 2026-05-06 19:50 | 53.69712 | 9.77208 | 1171 ft | 133 kts | 341° |
| 2026-05-06 19:50 | 53.70567 | 9.76694 | 1222 ft | 128 kts | 350° |
| 2026-05-06 19:50 | 53.71413 | 9.76301 | 1159 ft | 125 kts | 353° |
| 2026-05-06 19:51 | 53.72248 | 9.75950 | 1391 ft | 123 kts | 354° |
| 2026-05-06 19:51 | 53.73076 | 9.75644 | 1476 ft | 121 kts | 355° |
| 2026-05-06 19:51 | 53.73893 | 9.75383 | 1565 ft | 119 kts | 357° |
| 2026-05-06 19:51 | 53.74701 | 9.75168 | 1666 ft | 117 kts | 359° |
| 2026-05-06 19:52 | 53.75504 | 9.74972 | 1757 ft | 118 kts | 355° |
| 2026-05-06 19:52 | 53.76246 | 9.74298 | 1844 ft | 124 kts | 330° |
| 2026-05-06 19:52 | 53.76924 | 9.73397 | 1932 ft | 123 kts | 329° |
| 2026-05-06 19:52 | 53.77604 | 9.72575 | 1919 ft | 117 kts | 334° |
| 2026-05-06 19:53 | 53.78292 | 9.71885 | 1918 ft | 113 kts | 340° |
| 2026-05-06 19:53 | 53.78981 | 9.71307 | 1933 ft | 109 kts | 344° |
| 2026-05-06 19:53 | 53.79669 | 9.70802 | 1957 ft | 107 kts | 346° |
| 2026-05-06 19:53 | 53.80352 | 9.70336 | 1996 ft | 105 kts | 347° |
| 2026-05-06 19:54 | 53.81033 | 9.69890 | 2041 ft | 104 kts | 348° |
| 2026-05-06 19:54 | 53.81708 | 9.69452 | 2084 ft | 103 kts | 348° |
| 2026-05-06 19:54 | 53.82378 | 9.69018 | 2130 ft | 103 kts | 348° |
| 2026-05-06 19:54 | 53.83052 | 9.68585 | 2122 ft | 109 kts | 348° |
| 2026-05-06 19:55 | 53.83821 | 9.68105 | 1988 ft | 125 kts | 347° |
| 2026-05-06 19:55 | 53.84650 | 9.67565 | 1886 ft | 130 kts | 346° |
| 2026-05-06 19:55 | 53.85497 | 9.67024 | 1807 ft | 129 kts | 348° |
| 2026-05-06 19:55 | 53.86339 | 9.66502 | 1733 ft | 130 kts | 342° |
| 2026-05-06 19:56 | 53.87133 | 9.65773 | 1688 ft | 129 kts | 338° |
| 2026-05-06 19:56 | 53.87905 | 9.65038 | 1676 ft | 126 kts | 339° |
| 2026-05-06 19:56 | 53.88646 | 9.64291 | 1698 ft | 123 kts | 336° |
| 2026-05-06 19:56 | 53.89375 | 9.63577 | 1735 ft | 119 kts | 339° |
| 2026-05-06 19:57 | 53.90101 | 9.62934 | 1786 ft | 117 kts | 340° |
| 2026-05-06 19:57 | 53.90825 | 9.62339 | 1839 ft | 114 kts | 343° |
| 2026-05-06 19:57 | 53.91548 | 9.61813 | 1878 ft | 112 kts | 346° |
| 2026-05-06 19:57 | 53.92274 | 9.61388 | 1921 ft | 109 kts | 352° |
| 2026-05-06 19:58 | 53.92993 | 9.61113 | 1923 ft | 103 kts | 359° |
| 2026-05-06 19:58 | 53.93682 | 9.60960 | 1884 ft | 99 kts | 1° |
| 2026-05-06 19:58 | 53.94356 | 9.60812 | 1712 ft | 102 kts | 349° |
| 2026-05-06 19:58 | 53.94959 | 9.60079 | 1350 ft | 108 kts | 322° |
| 2026-05-06 19:59 | 53.95479 | 9.59209 | 1061 ft | 102 kts | 322° |
| 2026-05-06 19:59 | 53.95979 | 9.58380 | 791 ft | 98 kts | 321° |
| 2026-05-06 19:59 | 53.96461 | 9.57594 | 526 ft | 94 kts | 323° |
| 2026-05-06 19:59 | 53.97008 | 9.57082 | 394 ft | 88 kts | 354° |
| 2026-05-06 20:00 | 53.97594 | 9.56981 | 353 ft | 82 kts | 7° |
| 2026-05-06 20:00 | 53.98135 | 9.57041 | 311 ft | 72 kts | 13° |
| 2026-05-06 20:00 | 53.98544 | 9.57148 | 218 ft | 48 kts | 20° |
| 2026-05-06 20:00 | 53.98784 | 9.57273 | 141 ft | 23 kts | 36° |
| 2026-05-06 20:01 | 53.98844 | 9.57396 | 106 ft | 11 kts | 73° |
| 2026-05-06 20:01 | 53.98859 | 9.57496 | 95 ft | 8 kts | 86° |
| 2026-05-06 20:01 | 53.98871 | 9.57560 | 93 ft | 2 kts | 119° |
| 2026-05-06 20:01 | 53.98871 | 9.57569 | 88 ft | 1 kts | 118° |
| 2026-05-06 20:02 | 53.98870 | 9.57569 | 89 ft | 1 kts | 117° |
| 2026-05-06 20:02 | 53.98872 | 9.57563 | 87 ft | 1 kts | 115° |
| 2026-05-06 20:02 | 53.98872 | 9.57544 | 88 ft | 1 kts | 113° |
| 2026-05-06 20:02 | 53.98872 | 9.57556 | 89 ft | 1 kts | 112° |
| 2026-05-06 20:03 | 53.98868 | 9.57577 | 86 ft | 2 kts | 118° |
| 2026-05-06 20:03 | 53.98864 | 9.57593 | 84 ft | 1 kts | 118° |